Time;durP1;ratioP1;P1;durP2;ratioP2;P2;SDS_P1;SDS_P2;PMS_P1;PMS_P2;Temp;Humidity;BMP_temperature;BMP_pressure;BME280_temperature;BME280_humidity;BME280_pressure;Samples;Min_cycle;Max_cycle;Signal;HPM_P1;HPM_P2
2021/06/16 00:01:06;;;;;;;3.10;2.30;;;;;;;17.11;nan;96653.09;3529870;40;20552;-72
2021/06/16 00:03:34;;;;;;;5.50;2.13;;;;;;;17.15;nan;96643.91;3531125;40;21023;-71
2021/06/16 00:06:02;;;;;;;2.43;2.07;;;;;;;16.93;nan;96647.75;3531829;40;20873;-71
2021/06/16 00:08:29;;;;;;;3.20;1.83;;;;;;;16.91;nan;96636.47;3520702;40;20790;-72
2021/06/16 00:10:58;;;;;;;5.40;2.10;;;;;;;16.93;nan;96643.28;3524039;40;20468;-71
2021/06/16 00:13:26;;;;;;;3.77;1.90;;;;;;;16.92;nan;96641.63;3530882;40;20468;-71
2021/06/16 00:15:55;;;;;;;5.43;2.40;;;;;;;16.69;nan;96634.97;3529077;40;20556;-71
2021/06/16 00:18:23;;;;;;;2.90;2.40;;;;;;;16.67;nan;96635.09;3533722;40;20899;-71
2021/06/16 00:20:51;;;;;;;12.27;2.57;;;;;;;16.75;nan;96639.69;3531252;40;20857;-71
2021/06/16 00:23:19;;;;;;;8.00;2.63;;;;;;;16.76;nan;96639.56;3532814;40;20551;-71
2021/06/16 00:25:48;;;;;;;5.13;2.20;;;;;;;16.76;nan;96636.91;3528614;40;20843;-70
2021/06/16 00:28:16;;;;;;;4.67;2.13;;;;;;;16.68;nan;96634.16;3533095;40;20472;-71
2021/06/16 00:30:44;;;;;;;4.10;2.97;;;;;;;16.59;nan;96627.88;3527941;40;20540;-70
2021/06/16 00:33:14;;;;;;;6.30;2.67;;;;;;;16.67;nan;96631.63;3529938;40;21172;-71
2021/06/16 00:35:42;;;;;;;3.90;2.40;;;;;;;16.58;nan;96633.31;3529103;40;20461;-71
2021/06/16 00:38:10;;;;;;;3.07;2.30;;;;;;;16.60;nan;96637.50;3531643;40;20559;-71
2021/06/16 00:40:38;;;;;;;7.40;2.23;;;;;;;16.54;nan;96626.63;3529815;40;20474;-72
2021/06/16 00:43:06;;;;;;;3.67;2.10;;;;;;;16.46;nan;96626.53;3532169;40;20461;-72
2021/06/16 00:45:33;;;;;;;5.23;2.63;;;;;;;16.49;nan;96631.53;3528926;40;20552;-71
2021/06/16 00:48:02;;;;;;;6.10;2.73;;;;;;;16.52;nan;96629.41;3530105;40;20555;-72
2021/06/16 00:50:34;;;;;;;4.63;2.40;;;;;;;16.43;nan;96640.84;3530319;40;20733;-72
2021/06/16 00:53:02;;;;;;;4.37;2.67;;;;;;;16.44;nan;96639.03;3527573;40;20855;-70
2021/06/16 00:55:30;;;;;;;5.80;2.80;;;;;;;16.32;nan;96639.19;3531272;40;20528;-72
2021/06/16 00:57:59;;;;;;;5.03;2.67;;;;;;;16.29;nan;96633.34;3519600;40;20477;-72
2021/06/16 01:00:32;;;;;;;6.93;2.50;;;;;;;16.33;nan;96627.66;3515860;40;20692;-72
2021/06/16 01:03:05;;;;;;;5.10;2.20;;;;;;;16.29;nan;96630.69;3520766;40;20462;-73
2021/06/16 01:05:40;;;;;;;11.27;2.80;;;;;;;16.30;nan;96632.38;3530979;40;20571;-72
2021/06/16 01:08:08;;;;;;;6.13;2.70;;;;;;;16.29;nan;96622.78;3528962;40;20742;-72
2021/06/16 01:10:41;;;;;;;5.63;3.03;;;;;;;16.25;nan;96624.03;3529760;40;20864;-72
2021/06/16 01:13:15;;;;;;;7.90;2.87;;;;;;;16.24;nan;96630.31;3530378;40;21254;-72
2021/06/16 01:15:50;;;;;;;7.53;2.77;;;;;;;16.27;nan;96628.22;3529094;40;20468;-72
2021/06/16 01:18:21;;;;;;;5.03;2.70;;;;;;;16.24;nan;96620.56;3531183;40;20656;-73
2021/06/16 01:20:56;;;;;;;10.20;2.67;;;;;;;16.15;nan;96621.38;3529202;40;20489;-71
2021/06/16 01:23:43;;;;;;;6.37;3.00;;;;;;;16.14;nan;96625.03;3528466;40;20457;-72
2021/06/16 01:26:29;;;;;;;3.40;2.43;;;;;;;16.06;nan;96619.59;3528445;40;20548;-72
2021/06/16 01:29:02;;;;;;;6.87;2.97;;;;;;;16.00;nan;96621.00;3530621;40;20563;-72
2021/06/16 01:31:32;;;;;;;6.07;3.07;;;;;;;15.98;nan;96623.75;3532835;40;20448;-72
2021/06/16 01:34:02;;;;;;;5.43;2.70;;;;;;;16.05;nan;96616.09;3526201;40;20929;-72
2021/06/16 01:36:33;;;;;;;3.77;2.77;;;;;;;16.02;nan;96611.94;3523381;40;20944;-72
2021/06/16 01:39:02;;;;;;;5.97;2.60;;;;;;;16.02;nan;96611.94;3528515;40;20805;-73
2021/06/16 01:41:31;;;;;;;8.93;2.90;;;;;;;15.95;nan;96612.63;3530516;40;20462;-73
2021/06/16 01:44:01;;;;;;;11.33;3.07;;;;;;;15.96;nan;96612.50;3530656;40;20460;-73
2021/06/16 01:46:29;;;;;;;12.57;3.10;;;;;;;15.92;nan;96616.41;3518111;40;20769;-72
2021/06/16 01:48:58;;;;;;;13.57;2.90;;;;;;;15.92;nan;96623.50;3523296;40;20716;-73
2021/06/16 01:51:27;;;;;;;7.20;2.47;;;;;;;15.98;nan;96615.84;3534345;40;20479;-73
2021/06/16 01:53:57;;;;;;;12.10;3.60;;;;;;;16.07;nan;96615.97;3532596;40;20826;-73
2021/06/16 01:56:27;;;;;;;4.20;2.30;;;;;;;15.99;nan;96621.94;3531474;40;20465;-72
2021/06/16 01:58:57;;;;;;;4.53;2.20;;;;;;;15.99;nan;96616.66;3528900;40;20850;-73
2021/06/16 02:01:29;;;;;;;4.77;3.10;;;;;;;15.89;nan;96616.66;3529599;40;21015;-73
2021/06/16 02:03:58;;;;;;;3.10;2.17;;;;;;;15.94;nan;96609.19;3532002;40;20890;-72
2021/06/16 02:06:30;;;;;;;3.40;2.80;;;;;;;15.97;nan;96610.69;3529131;40;20453;-73
2021/06/16 02:09:00;;;;;;;5.60;3.17;;;;;;;15.98;nan;96607.09;3531618;40;20531;-73
2021/06/16 02:11:30;;;;;;;13.63;2.83;;;;;;;15.96;nan;96601.94;3515617;40;20490;-72
2021/06/16 02:14:02;;;;;;;4.17;2.93;;;;;;;15.91;nan;96598.88;3530209;40;20834;-74
2021/06/16 02:16:36;;;;;;;6.33;3.27;;;;;;;15.88;nan;96599.16;3529857;40;20461;-74
2021/06/16 02:19:08;;;;;;;4.50;2.30;;;;;;;15.86;nan;96598.47;3518522;40;20504;-73
2021/06/16 02:21:37;;;;;;;12.43;2.57;;;;;;;15.64;nan;96602.16;3528091;40;20867;-72
2021/06/16 02:24:05;;;;;;;4.53;2.57;;;;;;;15.55;nan;96598.53;3527883;40;20502;-73
2021/06/16 02:26:33;;;;;;;5.70;2.43;;;;;;;15.55;nan;96598.53;3519687;40;20480;-72
2021/06/16 02:29:04;;;;;;;4.13;1.90;;;;;;;15.46;nan;96593.25;3528629;40;20907;-72
2021/06/16 02:31:32;;;;;;;4.60;3.00;;;;;;;15.35;nan;96588.94;3529979;40;20441;-72
2021/06/16 02:34:00;;;;;;;6.33;2.50;;;;;;;15.43;nan;96583.81;3531895;40;20465;-72
2021/06/16 02:36:30;;;;;;;5.87;2.53;;;;;;;15.51;nan;96591.88;3527825;40;20462;-72
2021/06/16 02:39:01;;;;;;;4.37;2.10;;;;;;;15.48;nan;96592.13;3520230;40;20722;-72
2021/06/16 02:41:30;;;;;;;4.50;2.50;;;;;;;15.30;nan;96589.31;3531006;40;20769;-72
2021/06/16 02:43:58;;;;;;;7.00;2.77;;;;;;;15.44;nan;96590.72;3532420;40;20586;-72
2021/06/16 02:46:30;;;;;;;7.53;2.87;;;;;;;15.41;nan;96591.03;3531767;40;20569;-72
2021/06/16 02:48:59;;;;;;;5.03;3.20;;;;;;;15.22;nan;96584.72;3528003;40;20487;-72
2021/06/16 02:51:27;;;;;;;3.60;2.57;;;;;;;15.32;nan;96587.38;3530727;40;20536;-72
2021/06/16 02:53:56;;;;;;;5.73;2.70;;;;;;;15.33;nan;96589.06;3532471;40;20544;-72
2021/06/16 02:56:26;;;;;;;9.60;2.63;;;;;;;15.30;nan;96583.22;3529689;40;20473;-72
2021/06/16 02:58:55;;;;;;;4.27;2.93;;;;;;;15.32;nan;96582.09;3529600;40;20473;-72
2021/06/16 03:01:24;;;;;;;5.30;3.43;;;;;;;15.34;nan;96582.78;3531193;40;20466;-73
2021/06/16 03:03:54;;;;;;;5.37;2.67;;;;;;;15.32;nan;96583.91;3528980;40;20460;-72
2021/06/16 03:06:25;;;;;;;5.77;3.00;;;;;;;15.18;nan;96574.56;3520455;40;20813;-72
2021/06/16 03:08:57;;;;;;;8.77;3.13;;;;;;;15.19;nan;96586.78;3520340;40;20465;-73
2021/06/16 03:11:27;;;;;;;4.20;2.70;;;;;;;15.29;nan;96574.47;3523127;40;20719;-72
2021/06/16 03:13:55;;;;;;;5.93;3.43;;;;;;;15.32;nan;96576.00;3530603;40;20741;-72
2021/06/16 03:16:24;;;;;;;5.70;2.87;;;;;;;15.26;nan;96573.91;3532322;40;20453;-71
2021/06/16 03:18:54;;;;;;;4.70;2.90;;;;;;;15.31;nan;96571.66;3532072;40;21164;-71
2021/06/16 03:21:22;;;;;;;5.77;3.20;;;;;;;15.32;nan;96576.81;3530955;40;20460;-72
2021/06/16 03:23:51;;;;;;;5.80;3.07;;;;;;;15.28;nan;96580.69;3522024;40;20593;-71
2021/06/16 03:26:20;;;;;;;11.87;2.90;;;;;;;14.89;nan;96582.38;3530350;40;20778;-74
2021/06/16 03:28:49;;;;;;;6.37;2.57;;;;;;;15.06;nan;96581.75;3521803;40;20568;-73
2021/06/16 03:31:18;;;;;;;4.87;2.70;;;;;;;15.08;nan;96571.09;3533484;40;20472;-75
2021/06/16 03:33:48;;;;;;;7.83;2.90;;;;;;;15.13;nan;96580.25;3531824;40;20450;-76
2021/06/16 03:36:19;;;;;;;4.30;2.90;;;;;;;15.15;nan;96580.97;3534021;40;20461;-77
2021/06/16 03:38:49;;;;;;;12.40;2.83;;;;;;;15.08;nan;96579.81;3522779;40;21025;-78
2021/06/16 03:41:19;;;;;;;6.57;3.53;;;;;;;15.14;nan;96571.38;3521365;40;20565;-76
2021/06/16 03:43:49;;;;;;;4.10;2.90;;;;;;;15.14;nan;96579.28;3530380;40;21011;-75
2021/06/16 03:46:19;;;;;;;5.33;3.17;;;;;;;15.17;nan;96581.66;3523202;40;20668;-76
2021/06/16 03:48:52;;;;;;;6.80;2.77;;;;;;;15.27;nan;96583.47;3533357;40;20489;-77
2021/06/16 03:51:21;;;;;;;4.10;2.70;;;;;;;15.23;nan;96577.66;3531028;40;20442;-76
2021/06/16 03:53:50;;;;;;;7.63;3.00;;;;;;;15.19;nan;96576.22;3522804;40;20462;-78
2021/06/16 03:56:19;;;;;;;8.73;2.90;;;;;;;15.08;nan;96587.72;3534406;40;20695;-76
2021/06/16 03:58:47;;;;;;;4.00;3.60;;;;;;;14.42;nan;96588.91;3531376;40;20758;-76
2021/06/16 04:01:15;;;;;;;6.77;3.37;;;;;;;14.32;nan;96572.22;3534980;40;20821;-75
2021/06/16 04:03:43;;;;;;;3.80;2.77;;;;;;;14.74;nan;96577.47;3532960;40;20554;-75
2021/06/16 04:06:14;;;;;;;5.70;3.03;;;;;;;14.90;nan;96573.53;3531385;40;20535;-76
2021/06/16 04:08:44;;;;;;;6.67;3.27;;;;;;;15.05;nan;96577.44;3530614;40;20660;-75
2021/06/16 04:11:13;;;;;;;3.97;2.80;;;;;;;14.92;nan;96571.59;3532450;40;20838;-74
2021/06/16 04:13:42;;;;;;;2.70;2.50;;;;;;;15.26;nan;96576.53;3530227;40;20547;-75
2021/06/16 04:16:11;;;;;;;7.17;3.00;;;;;;;15.48;nan;96576.28;3521986;40;20481;-75
2021/06/16 04:18:41;;;;;;;4.83;3.00;;;;;;;15.71;nan;96571.59;3532290;40;20436;-76
2021/06/16 04:21:10;;;;;;;10.83;3.57;;;;;;;15.69;nan;96578.81;3531017;40;20457;-74
2021/06/16 04:23:37;;;;;;;6.60;3.57;;;;;;;15.78;nan;96569.28;3530604;40;20479;-73
2021/06/16 04:26:07;;;;;;;5.80;3.07;;;;;;;16.00;nan;96576.91;3531924;40;20446;-73
2021/06/16 04:28:35;;;;;;;4.67;2.97;;;;;;;15.97;nan;96574.53;3530157;40;20842;-74
2021/06/16 04:31:02;;;;;;;6.80;3.40;;;;;;;16.04;nan;96577.47;3532642;40;20459;-75
2021/06/16 04:33:30;;;;;;;5.40;2.80;;;;;;;15.71;nan;96570.78;3525456;40;20468;-74
2021/06/16 04:35:58;;;;;;;5.20;3.60;;;;;;;15.87;nan;96564.97;3532750;40;20471;-74
2021/06/16 04:38:26;;;;;;;6.97;4.00;;;;;;;15.67;nan;96567.56;3514712;40;20484;-74
2021/06/16 04:40:54;;;;;;;4.80;2.90;;;;;;;15.96;nan;96570.25;3528487;40;20465;-74
2021/06/16 04:43:24;;;;;;;6.17;3.60;;;;;;;16.02;nan;96569.69;3533897;40;20461;-74
2021/06/16 04:45:52;;;;;;;6.30;3.10;;;;;;;16.05;nan;96573.03;3530380;40;20807;-74
2021/06/16 04:48:20;;;;;;;4.93;3.07;;;;;;;15.93;nan;96575.81;3532003;40;20473;-74
2021/06/16 04:50:48;;;;;;;7.27;3.10;;;;;;;16.31;nan;96562.72;3532159;40;20772;-74
2021/06/16 04:53:16;;;;;;;5.23;3.40;;;;;;;16.57;nan;96571.69;3531500;40;20550;-74
2021/06/16 04:55:44;;;;;;;6.57;3.27;;;;;;;16.71;nan;96575.69;3531686;40;20457;-74
2021/06/16 04:58:12;;;;;;;6.80;3.77;;;;;;;16.83;nan;96567.59;3529655;40;20525;-74
2021/06/16 05:00:42;;;;;;;6.00;2.80;;;;;;;16.87;nan;96568.97;3529955;40;20903;-74
2021/06/16 05:03:10;;;;;;;6.80;3.43;;;;;;;16.92;nan;96567.56;3528923;40;20465;-72
2021/06/16 05:05:38;;;;;;;6.40;3.63;;;;;;;16.74;nan;96567.47;3512323;40;20531;-74
2021/06/16 05:08:07;;;;;;;7.37;3.43;;;;;;;16.67;nan;96569.00;3529413;40;20530;-73
2021/06/16 05:10:35;;;;;;;6.07;3.17;;;;;;;17.07;nan;96559.13;3529755;40;20481;-73
2021/06/16 05:13:03;;;;;;;5.20;2.87;;;;;;;17.29;nan;96568.47;3532935;40;20791;-72
2021/06/16 05:15:31;;;;;;;11.87;3.93;;;;;;;17.41;nan;96566.50;3529341;40;20873;-72
2021/06/16 05:18:03;;;;;;;7.20;3.57;;;;;;;17.33;nan;96559.28;3529434;40;20695;-72
2021/06/16 05:20:31;;;;;;;6.53;3.90;;;;;;;17.22;nan;96567.44;3522430;40;20450;-73
2021/06/16 05:23:01;;;;;;;16.20;7.87;;;;;;;17.84;nan;96552.56;3530974;40;20943;-73
2021/06/16 05:25:29;;;;;;;7.93;4.03;;;;;;;17.90;nan;96549.28;3521730;40;20853;-71
2021/06/16 05:27:57;;;;;;;13.07;3.60;;;;;;;17.90;nan;96546.66;3531144;40;20905;-72
2021/06/16 05:30:25;;;;;;;10.03;4.10;;;;;;;18.00;nan;96549.22;3528049;40;20862;-73
2021/06/16 05:32:53;;;;;;;41.73;18.90;;;;;;;18.12;nan;96550.63;3528002;40;20482;-71
2021/06/16 05:35:23;;;;;;;8.90;4.50;;;;;;;18.12;nan;96557.75;3529757;40;20466;-72
2021/06/16 05:37:51;;;;;;;9.50;3.60;;;;;;;18.32;nan;96553.91;3528654;40;20762;-72
2021/06/16 05:40:19;;;;;;;8.67;4.07;;;;;;;18.59;nan;96552.13;3528559;40;20842;-72
2021/06/16 05:42:47;;;;;;;9.60;4.17;;;;;;;18.86;nan;96547.66;3527427;40;20786;-72
2021/06/16 05:45:15;;;;;;;9.93;4.00;;;;;;;18.82;nan;96547.13;3529899;40;20573;-71
2021/06/16 05:47:43;;;;;;;6.87;4.10;;;;;;;18.99;nan;96549.84;3529745;40;20531;-71
2021/06/16 05:50:12;;;;;;;12.60;4.50;;;;;;;19.14;nan;96545.63;3533755;40;20564;-72
2021/06/16 05:52:42;;;;;;;12.07;3.83;;;;;;;19.38;nan;96541.38;3529562;40;20441;-71
2021/06/16 05:55:10;;;;;;;9.43;4.37;;;;;;;19.47;nan;96541.22;3528647;40;20461;-72
2021/06/16 05:57:38;;;;;;;9.77;3.90;;;;;;;19.70;nan;96537.97;3529277;40;20498;-72
2021/06/16 06:00:09;;;;;;;7.70;3.50;;;;;;;20.06;nan;96543.81;3531927;40;20770;-72
2021/06/16 06:02:57;;;;;;;4.33;3.53;;;;;;;20.41;nan;96547.13;3502617;40;20475;-72
2021/06/16 06:05:25;;;;;;;7.40;3.67;;;;;;;20.81;nan;96542.75;3514339;40;20486;-71
2021/06/16 06:07:55;;;;;;;12.33;3.50;;;;;;;20.87;nan;96549.22;3510176;40;20476;-72
2021/06/16 06:10:23;;;;;;;10.93;3.50;;;;;;;20.99;nan;96545.16;3508880;40;20880;-72
2021/06/16 06:12:55;;;;;;;12.73;3.67;;;;;;;21.00;nan;96546.03;3504721;40;20724;-72
2021/06/16 06:15:23;;;;;;;8.43;3.80;;;;;;;21.15;nan;96544.31;3514543;40;20489;-72
2021/06/16 06:17:51;;;;;;;57.33;31.57;;;;;;;21.46;nan;96544.34;3504609;40;20479;-72
2021/06/16 06:20:20;;;;;;;31.10;20.47;;;;;;;21.68;nan;96548.03;3512329;40;21062;-73
2021/06/16 06:22:47;;;;;;;5.03;3.50;;;;;;;21.76;nan;96539.16;3529439;40;20531;-73
2021/06/16 06:25:17;;;;;;;7.67;3.87;;;;;;;22.04;nan;96546.63;3528543;40;20686;-73
2021/06/16 06:27:45;;;;;;;6.80;2.90;;;;;;;22.33;nan;96551.25;3529121;40;20502;-73
2021/06/16 06:30:13;;;;;;;5.53;3.33;;;;;;;22.03;nan;96542.28;3520175;40;20932;-73
2021/06/16 06:32:42;;;;;;;4.00;2.97;;;;;;;22.37;nan;96551.72;3521556;40;20484;-73
2021/06/16 06:35:10;;;;;;;8.23;3.20;;;;;;;22.57;nan;96541.34;3531043;40;20542;-73
2021/06/16 06:37:39;;;;;;;3.80;3.00;;;;;;;22.81;nan;96542.94;3538199;40;20861;-72
2021/06/16 06:40:07;;;;;;;16.03;3.13;;;;;;;22.60;nan;96547.16;3521605;40;20988;-72
2021/06/16 06:42:37;;;;;;;9.07;2.70;;;;;;;22.33;nan;96545.09;3527869;40;20449;-73
2021/06/16 06:45:07;;;;;;;7.50;3.50;;;;;;;22.57;nan;96544.84;3529007;40;20857;-72
2021/06/16 06:47:38;;;;;;;4.30;1.90;;;;;;;22.53;nan;96546.22;3526964;40;20473;-73
2021/06/16 06:50:11;;;;;;;4.10;2.17;;;;;;;22.59;nan;96534.81;3529523;40;20473;-73
2021/06/16 06:52:40;;;;;;;8.83;2.40;;;;;;;22.83;nan;96532.91;3527458;40;20448;-73
2021/06/16 06:55:09;;;;;;;4.33;2.47;;;;;;;22.97;nan;96534.72;3529808;40;20515;-73
2021/06/16 06:57:40;;;;;;;9.90;2.30;;;;;;;22.83;nan;96530.22;3530158;40;20884;-73
2021/06/16 07:00:09;;;;;;;5.93;2.60;;;;;;;22.99;nan;96535.41;3532508;40;20905;-72
2021/06/16 07:02:38;;;;;;;8.40;3.37;;;;;;;23.30;nan;96537.03;3533820;40;20488;-72
2021/06/16 07:05:07;;;;;;;4.83;2.40;;;;;;;23.59;nan;96529.97;3532787;40;20461;-72
2021/06/16 07:07:35;;;;;;;7.70;2.57;;;;;;;23.72;nan;96524.78;3527928;40;20458;-71
2021/06/16 07:10:03;;;;;;;11.23;2.53;;;;;;;23.83;nan;96526.97;3531334;40;20516;-72
2021/06/16 07:12:32;;;;;;;5.80;2.80;;;;;;;23.90;nan;96527.03;3523932;40;20464;-72
2021/06/16 07:15:01;;;;;;;3.23;2.03;;;;;;;23.91;nan;96527.84;3528366;40;20525;-72
2021/06/16 07:17:29;;;;;;;4.33;2.07;;;;;;;23.99;nan;96525.91;3529376;40;20442;-72
2021/06/16 07:19:57;;;;;;;5.70;2.40;;;;;;;24.11;nan;96523.53;3517732;40;20458;-72
2021/06/16 07:22:25;;;;;;;13.50;2.90;;;;;;;23.72;nan;96527.44;3529701;40;20511;-72
2021/06/16 07:24:54;;;;;;;9.30;2.90;;;;;;;24.47;nan;96522.56;3520215;40;20822;-72
2021/06/16 07:27:21;;;;;;;4.20;2.33;;;;;;;24.22;nan;96520.31;3530049;40;20442;-72
2021/06/16 07:29:49;;;;;;;13.63;4.50;;;;;;;;;;3530519;40;20730;-72
2021/06/16 07:32:18;;;;;;;30.13;3.60;;;;;;;24.59;nan;96523.72;3529309;40;20456;-72
2021/06/16 07:34:47;;;;;;;4.90;2.10;;;;;;;24.56;nan;96524.13;3532878;40;20577;-72
2021/06/16 07:37:15;;;;;;;7.43;2.83;;;;;;;24.91;nan;96524.13;3530159;40;20454;-72
2021/06/16 07:39:43;;;;;;;4.00;2.40;;;;;;;25.20;nan;96517.66;3533706;40;20888;-72
2021/06/16 07:42:12;;;;;;;3.83;1.87;;;;;;;25.36;nan;96519.19;3530504;40;20457;-73
2021/06/16 07:44:41;;;;;;;2.90;2.27;;;;;;;24.58;nan;96518.56;3527522;40;20586;-72
2021/06/16 07:47:09;;;;;;;7.40;2.30;;;;;;;25.39;nan;96515.31;3529749;40;20524;-72
2021/06/16 07:49:38;;;;;;;5.00;1.93;;;;;;;25.35;nan;96514.88;3527101;40;20822;-72
2021/06/16 07:52:07;;;;;;;5.30;2.90;;;;;;;25.53;nan;96522.34;3518234;40;20869;-72
2021/06/16 07:54:37;;;;;;;8.40;2.50;;;;;;;25.96;nan;96511.34;3534347;40;20739;-70
2021/06/16 07:57:11;;;;;;;7.03;1.90;;;;;;;26.06;nan;96504.75;3551345;40;20481;-72
2021/06/16 07:59:49;;;;;;;8.70;3.03;;;;;;;25.94;nan;96508.03;3554440;40;20492;-72
2021/06/16 08:02:20;;;;;;;4.03;1.80;;;;;;;25.80;nan;96509.03;3535223;40;20824;-72
2021/06/16 08:04:49;;;;;;;3.20;2.23;;;;;;;25.97;nan;96512.16;3531628;40;20583;-72
2021/06/16 08:07:17;;;;;;;4.43;2.80;;;;;;;26.08;nan;96503.50;3535495;40;20437;-72
2021/06/16 08:09:45;;;;;;;6.00;1.90;;;;;;;26.11;nan;96502.25;3534160;40;20475;-72
2021/06/16 08:12:15;;;;;;;10.23;2.40;;;;;;;26.02;nan;96515.06;3527264;40;20566;-72
2021/06/16 08:14:44;;;;;;;10.20;2.70;;;;;;;26.21;nan;96510.75;3531256;40;20469;-72
2021/06/16 08:17:12;;;;;;;4.33;1.80;;;;;;;26.12;nan;96507.44;3531621;40;21228;-72
2021/06/16 08:19:40;;;;;;;5.20;2.23;;;;;;;26.16;nan;96511.34;3518911;40;20472;-72
2021/06/16 08:22:11;;;;;;;8.23;2.40;;;;;;;26.35;nan;96509.72;3529553;40;20827;-72
2021/06/16 08:24:39;;;;;;;7.90;2.33;;;;;;;26.68;nan;96483.88;3530088;40;20514;-72
2021/06/16 08:27:09;;;;;;;40.17;5.10;;;;;;;26.85;nan;96500.38;3533253;40;20461;-72
2021/06/16 08:29:37;;;;;;;6.13;2.30;;;;;;;26.56;nan;96503.28;3530039;40;20484;-72
2021/06/16 08:32:06;;;;;;;12.17;2.33;;;;;;;26.28;nan;96508.06;3531760;40;20484;-72
2021/06/16 08:34:35;;;;;;;8.10;2.50;;;;;;;25.90;nan;96500.59;3528989;40;20717;-72
2021/06/16 08:37:04;;;;;;;8.63;2.97;;;;;;;26.71;nan;96494.19;3530209;40;20449;-72
2021/06/16 08:39:34;;;;;;;5.30;2.43;;;;;;;26.82;nan;96494.38;3533261;40;20492;-72
2021/06/16 08:42:02;;;;;;;11.50;1.97;;;;;;;26.96;nan;96499.72;3537705;40;20433;-72
2021/06/16 08:44:31;;;;;;;3.20;2.00;;;;;;;26.84;nan;96499.53;3532505;40;20936;-72
2021/06/16 08:46:59;;;;;;;20.93;2.30;;;;;;;26.47;nan;96503.72;3530506;40;20462;-71
2021/06/16 08:49:27;;;;;;;7.20;2.43;;;;;;;26.94;nan;96499.94;3532922;40;20467;-72
2021/06/16 08:51:57;;;;;;;47.70;4.50;;;;;;;27.36;nan;96494.22;3532086;40;20822;-72
2021/06/16 08:54:25;;;;;;;13.43;2.13;;;;;;;27.37;nan;96494.00;3530979;40;20863;-72
2021/06/16 08:56:54;;;;;;;4.50;2.33;;;;;;;27.83;nan;96486.69;3535101;40;20707;-73
2021/06/16 08:59:23;;;;;;;7.90;1.90;;;;;;;27.49;nan;96494.16;3529360;40;20905;-72
2021/06/16 09:01:50;;;;;;;3.70;1.73;;;;;;;27.60;nan;96496.16;3532891;40;20437;-71
2021/06/16 09:04:43;;;;;;;4.40;2.50;;;;;;;28.03;nan;96494.69;3524354;40;20495;-72
2021/06/16 09:07:15;;;;;;;3.30;2.13;;;;;;;27.77;nan;96499.16;3526553;40;20492;-72
2021/06/16 09:09:50;;;;;;;10.40;2.03;;;;;;;27.17;nan;96498.63;3531483;40;20913;-71
2021/06/16 09:12:31;;;;;;;8.27;2.20;;;;;;;27.22;nan;96488.84;3532704;40;20461;-72
2021/06/16 09:15:00;;;;;;;3.10;2.17;;;;;;;27.34;nan;96488.22;3524279;40;20497;-72
2021/06/16 09:17:28;;;;;;;6.80;2.13;;;;;;;27.62;nan;96493.25;3523792;40;20781;-72
2021/06/16 09:20:01;;;;;;;5.03;2.70;;;;;;;27.86;nan;96488.97;3530618;40;20715;-72
2021/06/16 09:22:31;;;;;;;5.03;2.47;;;;;;;27.67;nan;96484.53;3519921;40;20540;-72
2021/06/16 09:25:02;;;;;;;6.73;2.60;;;;;;;28.26;nan;96482.47;3527378;40;20854;-72
2021/06/16 09:27:44;;;;;;;9.93;2.40;;;;;;;28.48;nan;96483.75;3532403;40;20940;-72
2021/06/16 09:30:37;;;;;;;6.77;2.73;;;;;;;28.59;nan;96487.59;3530094;40;20918;-73
2021/06/16 09:33:08;;;;;;;5.60;2.10;;;;;;;28.36;nan;96482.81;3514527;40;20532;-72
2021/06/16 09:35:38;;;;;;;4.60;2.60;;;;;;;28.82;nan;96486.94;3529881;40;20574;-72
2021/06/16 09:38:09;;;;;;;3.83;2.10;;;;;;;28.60;nan;96483.88;3527752;40;20657;-72
2021/06/16 09:40:40;;;;;;;2.63;1.90;;;;;;;28.69;nan;96487.09;3533152;40;20461;-72
2021/06/16 09:43:12;;;;;;;4.17;2.10;;;;;;;28.67;nan;96487.28;3533828;40;20548;-72
2021/06/16 09:45:43;;;;;;;11.23;1.80;;;;;;;28.35;nan;96486.56;3522696;40;20485;-72
2021/06/16 09:48:20;;;;;;;5.20;2.17;;;;;;;28.58;nan;96496.75;3530702;40;20575;-72
2021/06/16 09:50:49;;;;;;;5.10;2.07;;;;;;;29.36;nan;96488.00;3531469;40;20481;-73
2021/06/16 09:53:17;;;;;;;3.50;2.20;;;;;;;29.10;nan;96489.09;3530422;40;20898;-73
2021/06/16 09:55:45;;;;;;;4.47;2.10;;;;;;;28.96;nan;96483.06;3531190;40;20485;-73
2021/06/16 09:58:17;;;;;;;5.37;1.97;;;;;;;29.00;nan;96486.13;3529534;40;21150;-72
2021/06/16 10:00:59;;;;;;;3.60;1.63;;;;;;;28.87;nan;96488.97;3527927;40;20529;-72
2021/06/16 10:03:27;;;;;;;10.23;2.17;;;;;;;28.95;nan;96480.56;3535275;40;20883;-72
2021/06/16 10:06:05;;;;;;;7.67;1.93;;;;;;;29.53;nan;96476.56;3529532;40;20473;-72
2021/06/16 10:08:33;;;;;;;10.50;3.03;;;;;;;29.93;nan;96462.53;3531443;40;20848;-72
2021/06/16 10:11:03;;;;;;;7.23;1.93;;;;;;;29.99;nan;96476.97;3527702;40;20732;-73
2021/06/16 10:13:33;;;;;;;4.50;1.80;;;;;;;29.13;nan;96477.91;3531559;40;20850;-72
2021/06/16 10:16:02;;;;;;;6.93;1.97;;;;;;;29.32;nan;96475.19;3528173;40;20465;-72
2021/06/16 10:18:33;;;;;;;4.57;2.30;;;;;;;30.12;nan;96479.47;3537121;40;20474;-73
2021/06/16 10:21:01;;;;;;;25.27;17.60;;;;;;;29.79;nan;96469.19;3521741;40;20774;-72
2021/06/16 10:23:29;;;;;;;5.80;1.80;;;;;;;28.77;nan;96470.63;3529438;40;20929;-73
2021/06/16 10:26:02;;;;;;;5.33;2.30;;;;;;;30.04;nan;96472.53;3529110;40;20472;-72
2021/06/16 10:28:47;;;;;;;4.10;2.53;;;;;;;31.78;nan;96466.56;3530080;40;20499;-72
2021/06/16 10:31:16;;;;;;;4.20;1.60;;;;;;;30.57;nan;96461.91;3525908;40;20797;-73
2021/06/16 10:33:56;;;;;;;14.70;2.23;;;;;;;30.75;nan;96465.31;3528452;40;20455;-73
2021/06/16 10:36:24;;;;;;;8.23;1.97;;;;;;;30.60;nan;96459.56;3527049;40;20797;-72
2021/06/16 10:39:14;;;;;;;7.43;1.63;;;;;;;30.89;nan;96459.66;3527345;40;20536;-72
2021/06/16 10:42:00;;;;;;;2.50;1.70;;;;;;;31.72;nan;96458.34;3529099;40;20688;-72
2021/06/16 10:44:30;;;;;;;3.97;2.00;;;;;;;31.02;nan;96451.28;3530892;40;20521;-72
2021/06/16 10:47:00;;;;;;;18.97;2.50;;;;;;;31.93;nan;96434.31;3529952;40;20477;-73
2021/06/16 10:49:52;;;;;;;2.00;1.63;;;;;;;31.81;nan;96457.94;3529571;40;20902;-72
2021/06/16 10:52:23;;;;;;;4.70;1.63;;;;;;;31.49;nan;96450.34;3529356;40;20449;-72
2021/06/16 10:54:55;;;;;;;7.73;1.57;;;;;;;31.02;nan;96443.19;3529980;40;20457;-73
2021/06/16 10:57:24;;;;;;;6.63;5.20;;;;;;;32.08;nan;96442.72;3530128;40;20476;-73
2021/06/16 11:00:10;;;;;;;2.33;1.60;;;;;;;30.49;nan;96446.88;3529602;40;20469;-72
2021/06/16 11:03:13;;;;;;;3.10;2.20;;;;;;;32.14;nan;96440.94;3528459;40;20438;-72
2021/06/16 11:05:45;;;;;;;2.90;1.90;;;;;;;31.91;nan;96431.03;3528981;40;20939;-73
2021/06/16 11:08:55;;;;;;;2.80;1.80;;;;;;;31.16;nan;96435.63;3526843;40;20453;-72
2021/06/16 11:11:24;;;;;;;5.80;1.80;;;;;;;31.02;nan;96424.25;3529381;40;20981;-73
2021/06/16 11:13:52;;;;;;;53.80;4.70;;;;;;;31.57;nan;96441.03;3514757;40;20685;-72
2021/06/16 11:16:52;;;;;;;6.00;1.93;;;;;;;31.64;nan;96433.59;3530413;40;20457;-73
2021/06/16 11:19:23;;;;;;;6.50;2.00;;;;;;;31.81;nan;96433.59;3521214;40;20481;-72
2021/06/16 11:21:53;;;;;;;8.43;2.90;;;;;;;31.48;nan;96429.75;3529992;40;20771;-72
2021/06/16 11:24:22;;;;;;;6.23;2.00;;;;;;;32.82;nan;96428.13;3527522;40;20779;-72
2021/06/16 11:26:51;;;;;;;3.30;1.60;;;;;;;32.69;nan;96428.50;3527903;40;20453;-73
2021/06/16 11:30:00;;;;;;;5.90;1.50;;;;;;;33.19;nan;96416.69;3526373;40;20741;-73
2021/06/16 11:32:29;;;;;;;9.87;2.10;;;;;;;31.98;nan;96415.47;3521208;40;20591;-73
2021/06/16 11:34:57;;;;;;;21.93;2.40;;;;;;;32.22;nan;96426.16;3527700;40;20579;-72
2021/06/16 11:37:58;;;;;;;3.83;1.43;;;;;;;31.83;nan;96417.91;3527867;40;20826;-73
2021/06/16 11:40:28;;;;;;;3.50;2.03;;;;;;;32.34;nan;96407.91;3529106;40;20829;-73
2021/06/16 11:42:56;;;;;;;31.33;3.63;;;;;;;32.16;nan;96416.31;3520269;40;20684;-72
2021/06/16 11:45:27;;;;;;;3.60;2.33;;;;;;;31.73;nan;96407.75;3532006;40;20782;-73
2021/06/16 11:47:59;;;;;;;2.73;1.77;;;;;;;33.18;nan;96406.88;3530311;40;20463;-72
2021/06/16 11:50:29;;;;;;;4.80;2.40;;;;;;;35.51;nan;96400.06;3528810;40;20907;-73
2021/06/16 11:53:01;;;;;;;5.13;3.27;;;;;;;32.37;nan;96396.59;3527700;40;20818;-73
2021/06/16 11:55:44;;;;;;;2.70;1.60;;;;;;;33.35;nan;96397.84;3530406;40;20452;-73
2021/06/16 11:58:26;;;;;;;2.50;1.50;;;;;;;32.20;nan;96399.31;3529522;40;20477;-73
2021/06/16 12:01:06;;;;;;;4.47;2.30;;;;;;;33.13;nan;96381.59;3527654;40;20480;-73
2021/06/16 12:03:36;;;;;;;3.80;2.00;;;;;;;32.43;nan;96397.50;3517853;40;20496;-73
2021/06/16 12:06:05;;;;;;;9.17;2.10;;;;;;;34.39;nan;96379.47;3535329;40;20463;-73